createdAt,value
2022-12-16T00:00:20.780Z,-7.80
2022-12-16T00:02:49.708Z,-7.80
2022-12-16T00:05:20.335Z,-7.80
2022-12-16T00:07:49.034Z,-7.80
2022-12-16T00:10:17.675Z,-7.90
2022-12-16T00:12:46.219Z,-7.80
2022-12-16T00:15:15.480Z,-7.90
2022-12-16T00:17:44.130Z,-7.90
2022-12-16T00:20:13.502Z,-7.90
2022-12-16T00:22:43.389Z,-7.90
2022-12-16T00:25:12.250Z,-7.90
2022-12-16T00:27:40.934Z,-7.90
2022-12-16T00:30:10.874Z,-7.90
2022-12-16T00:32:39.526Z,-7.90
2022-12-16T00:35:08.376Z,-7.90
2022-12-16T00:37:37.030Z,-8.00
2022-12-16T00:40:08.137Z,-8.00
2022-12-16T00:42:36.956Z,-8.00
2022-12-16T00:45:06.147Z,-8.00
2022-12-16T00:47:35.437Z,-8.00
2022-12-16T00:50:07.236Z,-8.00
2022-12-16T00:52:35.818Z,-8.00
2022-12-16T00:55:06.244Z,-8.00
2022-12-16T00:57:35.233Z,-8.00
2022-12-16T01:00:05.371Z,-8.10
2022-12-16T01:02:34.167Z,-8.00
2022-12-16T01:05:02.780Z,-8.00
2022-12-16T01:07:31.356Z,-8.10
2022-12-16T01:09:59.875Z,-8.00
2022-12-16T01:12:29.831Z,-8.00
2022-12-16T01:14:58.464Z,-8.00
2022-12-16T01:17:27.043Z,-8.00
2022-12-16T01:19:55.908Z,-8.00
2022-12-16T01:22:24.840Z,-8.00
2022-12-16T01:24:53.412Z,-8.00
2022-12-16T01:27:23.890Z,-8.00
2022-12-16T01:29:54.075Z,-8.10
2022-12-16T01:32:24.520Z,-8.10
2022-12-16T01:34:55.566Z,-8.10
2022-12-16T01:37:25.246Z,-8.10
2022-12-16T01:39:53.852Z,-8.20
2022-12-16T01:42:24.058Z,-8.20
2022-12-16T01:44:55.156Z,-8.20
2022-12-16T01:47:27.491Z,-8.20
2022-12-16T01:50:00.276Z,-8.20
2022-12-16T01:52:31.208Z,-8.20
2022-12-16T01:57:55.341Z,-8.20
2022-12-16T02:00:25.591Z,-8.20
2022-12-16T02:02:56.598Z,-8.20
2022-12-16T02:05:26.518Z,-8.20
2022-12-16T02:08:00.816Z,-8.20
2022-12-16T02:13:36.634Z,-8.30
2022-12-16T02:16:17.178Z,-8.30
2022-12-16T02:18:56.397Z,-8.30
2022-12-16T02:21:37.475Z,-8.30
2022-12-16T02:24:55.012Z,-8.30
2022-12-16T02:31:20.850Z,-8.30
2022-12-16T02:33:59.946Z,-8.30
2022-12-16T02:36:42.334Z,-8.30
2022-12-16T02:39:15.767Z,-8.40
2022-12-16T02:41:49.639Z,-8.40
2022-12-16T02:47:06.876Z,-8.40
2022-12-16T02:49:50.132Z,-8.40
2022-12-16T02:52:22.768Z,-8.40
2022-12-16T02:54:54.380Z,-8.30
2022-12-16T02:57:39.032Z,-8.30
2022-12-16T03:00:12.579Z,-8.30
2022-12-16T03:02:49.403Z,-8.30
2022-12-16T03:05:22.239Z,-8.30
2022-12-16T03:07:53.385Z,-8.30
2022-12-16T03:10:27.520Z,-8.30
2022-12-16T03:12:57.775Z,-8.30
2022-12-16T03:15:29.941Z,-8.30
2022-12-16T03:20:53.720Z,-8.30
2022-12-16T03:23:32.789Z,-8.30
2022-12-16T03:26:07.296Z,-8.30
2022-12-16T03:28:45.604Z,-7.60
2022-12-16T03:31:25.634Z,-8.30
2022-12-16T03:36:52.435Z,-8.40
2022-12-16T03:39:23.180Z,-8.30
2022-12-16T03:41:54.375Z,-8.40
2022-12-16T03:44:25.245Z,-8.40
2022-12-16T03:46:53.916Z,-8.40
2022-12-16T03:49:24.420Z,-8.40
2022-12-16T03:54:39.818Z,-8.50
2022-12-16T03:57:14.746Z,-8.50
2022-12-16T03:59:44.190Z,-8.50
2022-12-16T04:02:12.783Z,-8.50
2022-12-16T04:04:42.935Z,-8.50
2022-12-16T04:10:11.201Z,-8.50
2022-12-16T04:12:57.414Z,-8.50
2022-12-16T04:15:43.451Z,-8.50
2022-12-16T04:18:33.773Z,-8.50
2022-12-16T04:21:40.901Z,-8.50
2022-12-16T04:27:37.520Z,-8.60
2022-12-16T04:30:27.639Z,-8.60
2022-12-16T04:33:34.823Z,-8.60
2022-12-16T04:36:42.398Z,-8.60
2022-12-16T04:39:48.217Z,-8.60
2022-12-16T04:46:19.853Z,-8.60
2022-12-16T04:49:25.996Z,-8.70
2022-12-16T04:52:34.061Z,-8.70
2022-12-16T04:55:39.948Z,-8.70
2022-12-16T05:02:09.491Z,-8.60
2022-12-16T05:05:15.465Z,-8.60
2022-12-16T05:08:37.631Z,-8.60
2022-12-16T05:11:44.046Z,-8.60
2022-12-16T05:14:54.038Z,-8.60
2022-12-16T05:18:00.510Z,-8.70
2022-12-16T05:21:05.200Z,-8.70
2022-12-16T05:24:12.501Z,-8.70
2022-12-16T05:27:18.364Z,-8.70
2022-12-16T05:30:18.688Z,-8.70
2022-12-16T05:33:07.720Z,-8.70
2022-12-16T05:35:54.306Z,-8.70
2022-12-16T05:38:40.188Z,-8.60
2022-12-16T05:41:27.532Z,-8.60
2022-12-16T05:44:13.373Z,-8.70
2022-12-16T05:46:59.517Z,-8.60
2022-12-16T05:49:45.343Z,-8.70
2022-12-16T05:52:31.099Z,-8.70
2022-12-16T05:55:17.035Z,-8.70
2022-12-16T05:58:07.967Z,-8.70
2022-12-16T06:00:54.173Z,-8.70
2022-12-16T06:03:48.782Z,-8.70
2022-12-16T06:06:34.887Z,-8.70
2022-12-16T06:09:21.266Z,-8.70
2022-12-16T06:12:08.178Z,-8.70
2022-12-16T06:14:55.317Z,-8.70
2022-12-16T06:17:41.195Z,-8.70
2022-12-16T06:20:30.044Z,-8.70
2022-12-16T06:23:18.778Z,-8.70
2022-12-16T06:26:06.880Z,-8.70
2022-12-16T06:28:53.109Z,-8.60
2022-12-16T06:31:40.664Z,-8.70
2022-12-16T06:34:26.791Z,-8.50
2022-12-16T06:37:12.836Z,-8.70
2022-12-16T06:39:58.974Z,-8.70
2022-12-16T06:42:44.803Z,-8.60
2022-12-16T06:45:34.685Z,-8.70
2022-12-16T06:48:41.429Z,-8.70
2022-12-16T06:51:27.502Z,-8.70
2022-12-16T06:54:13.788Z,-8.70
2022-12-16T06:56:59.927Z,-8.70
2022-12-16T06:59:46.153Z,-8.70
2022-12-16T07:02:32.430Z,-8.70
2022-12-16T07:05:20.388Z,-8.70
2022-12-16T07:08:07.260Z,-8.10
2022-12-16T07:10:55.045Z,-8.70
2022-12-16T07:13:43.111Z,-8.70
2022-12-16T07:16:29.479Z,-8.70
2022-12-16T07:19:15.399Z,-8.70
2022-12-16T07:22:02.809Z,-8.70
2022-12-16T07:24:48.822Z,-8.70
2022-12-16T07:27:34.756Z,-8.60
2022-12-16T07:30:21.038Z,-8.70
2022-12-16T07:33:08.969Z,-8.60
2022-12-16T07:35:54.088Z,-8.60
2022-12-16T07:38:41.890Z,-8.60
2022-12-16T07:41:28.185Z,-8.60
2022-12-16T07:44:13.995Z,-8.60
2022-12-16T07:47:00.203Z,-8.50
2022-12-16T07:49:46.266Z,-8.50
2022-12-16T07:52:32.428Z,-8.50
2022-12-16T07:55:19.722Z,-8.50
2022-12-16T07:58:08.635Z,-8.40
2022-12-16T08:00:55.214Z,-8.40
2022-12-16T08:03:42.190Z,-8.40
2022-12-16T08:06:28.521Z,-8.40
2022-12-16T08:09:14.467Z,-8.40
2022-12-16T08:12:01.979Z,-8.30
2022-12-16T08:14:47.865Z,-8.30
2022-12-16T08:17:33.825Z,-8.30
2022-12-16T08:20:20.185Z,-8.30
2022-12-16T08:23:06.407Z,-8.30
2022-12-16T08:25:52.563Z,-8.20
2022-12-16T08:28:42.541Z,-8.20
2022-12-16T08:31:28.832Z,-8.20
2022-12-16T08:34:17.050Z,-8.10
2022-12-16T08:37:02.973Z,-8.10
2022-12-16T08:40:10.627Z,-8.10
2022-12-16T08:42:55.232Z,-8.10
2022-12-16T08:45:43.963Z,-8.00
2022-12-16T08:48:29.956Z,-7.90
2022-12-16T08:51:19.384Z,-7.90
2022-12-16T08:54:05.713Z,-7.80
2022-12-16T08:56:51.585Z,-7.60
2022-12-16T08:59:37.704Z,-7.60
2022-12-16T09:02:25.090Z,-7.50
2022-12-16T09:05:11.273Z,-7.40
2022-12-16T09:08:06.072Z,-7.30
2022-12-16T09:10:52.427Z,-7.20
2022-12-16T09:13:41.397Z,-7.10
2022-12-16T09:16:27.403Z,-7.00
2022-12-16T09:19:17.185Z,-6.90
2022-12-16T09:22:03.431Z,-6.80
2022-12-16T09:24:49.471Z,-6.70
2022-12-16T09:27:35.365Z,-6.60
2022-12-16T09:30:21.524Z,-6.50
2022-12-16T09:33:07.658Z,-6.40
2022-12-16T09:35:56.031Z,-6.40
2022-12-16T09:38:41.868Z,-6.30
2022-12-16T09:41:50.349Z,-6.20
2022-12-16T09:44:46.019Z,-6.10
2022-12-16T09:47:41.630Z,-6.00
2022-12-16T09:50:38.361Z,-5.90
2022-12-16T09:53:30.470Z,-5.90
2022-12-16T09:56:17.386Z,-5.80
2022-12-16T09:59:08.382Z,-5.70
2022-12-16T10:01:56.777Z,-5.60
2022-12-16T10:04:43.586Z,-5.50
2022-12-16T10:07:35.627Z,-5.50
2022-12-16T10:10:35.365Z,-5.40
2022-12-16T10:13:29.101Z,-5.30
2022-12-16T10:16:25.583Z,-5.20
2022-12-16T10:19:19.161Z,-5.10
2022-12-16T10:22:12.536Z,-5.10
2022-12-16T10:25:08.724Z,-5.00
2022-12-16T10:28:02.105Z,-4.90
2022-12-16T10:30:49.413Z,-4.80
2022-12-16T10:33:38.216Z,-4.70
2022-12-16T10:36:31.834Z,-4.60
2022-12-16T10:39:21.210Z,-4.50
2022-12-16T10:42:11.343Z,-4.40
2022-12-16T10:45:08.885Z,-4.30
2022-12-16T10:47:54.942Z,-4.20
2022-12-16T10:50:46.162Z,-4.10
2022-12-16T10:53:34.623Z,-4.00
2022-12-16T10:56:32.859Z,-4.00
2022-12-16T10:59:23.131Z,-3.80
2022-12-16T11:02:18.287Z,-3.60
2022-12-16T11:05:05.441Z,-3.70
2022-12-16T11:07:56.081Z,-3.60
2022-12-16T11:10:49.201Z,-3.50
2022-12-16T11:13:42.086Z,-3.40
2022-12-16T11:16:37.973Z,-3.30
2022-12-16T11:19:38.491Z,-3.30
2022-12-16T11:22:25.986Z,-3.20
2022-12-16T11:25:24.141Z,-3.10
2022-12-16T11:28:20.573Z,-3.10
2022-12-16T11:31:11.679Z,-3.00
2022-12-16T11:33:58.776Z,-2.90
2022-12-16T11:36:46.090Z,-2.90
2022-12-16T11:39:36.338Z,-2.80
2022-12-16T11:42:24.334Z,-2.80
2022-12-16T11:45:28.547Z,-2.70
2022-12-16T11:48:31.702Z,-2.60
2022-12-16T11:51:19.864Z,-2.60
2022-12-16T11:54:10.998Z,-2.50
2022-12-16T11:56:59.875Z,-2.50
2022-12-16T11:59:55.172Z,-2.40
2022-12-16T12:02:47.108Z,-2.30
2022-12-16T12:05:33.424Z,-2.20
2022-12-16T12:08:24.854Z,-2.20
2022-12-16T12:11:23.034Z,-2.20
2022-12-16T12:14:17.883Z,-2.10
2022-12-16T12:17:16.047Z,-2.00
2022-12-16T12:20:12.506Z,-1.90
2022-12-16T12:22:59.651Z,-1.90
2022-12-16T12:25:53.137Z,-1.80
2022-12-16T12:28:51.397Z,-1.80
2022-12-16T12:31:50.894Z,-1.80
2022-12-16T12:34:44.117Z,-1.70
2022-12-16T12:37:39.679Z,-1.70
2022-12-16T12:40:42.551Z,-1.70
2022-12-16T12:43:43.170Z,-1.60
2022-12-16T12:46:40.508Z,-1.60
2022-12-16T12:49:35.104Z,-1.50
2022-12-16T12:52:29.855Z,-1.50
2022-12-16T12:55:22.662Z,-1.50
2022-12-16T12:58:07.859Z,-1.50
2022-12-16T13:01:01.646Z,-1.40
2022-12-16T13:03:55.350Z,-1.40
2022-12-16T13:06:43.089Z,-1.40
2022-12-16T13:09:48.187Z,-1.30
2022-12-16T13:12:50.260Z,-1.30
2022-12-16T13:15:53.491Z,-1.30
2022-12-16T13:18:49.860Z,-1.20
2022-12-16T13:22:05.699Z,-1.20
2022-12-16T13:25:04.488Z,-1.20
2022-12-16T13:28:05.895Z,-1.20
2022-12-16T13:30:53.055Z,-1.20
2022-12-16T13:33:46.556Z,-1.20
2022-12-16T13:36:36.711Z,-1.20
2022-12-16T13:39:40.589Z,-1.20
2022-12-16T13:42:53.189Z,-1.20
2022-12-16T13:45:52.245Z,-1.10
2022-12-16T13:48:56.887Z,-1.20
2022-12-16T13:52:25.411Z,-1.20
2022-12-16T13:55:23.021Z,-1.20
2022-12-16T13:58:23.525Z,-1.10
2022-12-16T14:01:26.029Z,-1.20
2022-12-16T14:04:12.665Z,-1.20
2022-12-16T14:06:59.123Z,-1.30
2022-12-16T14:09:51.344Z,-1.30
2022-12-16T14:13:00.091Z,-1.30
2022-12-16T14:15:52.482Z,-1.30
2022-12-16T14:18:49.130Z,-1.30
2022-12-16T14:21:45.700Z,-1.30
2022-12-16T14:24:41.899Z,-1.30
2022-12-16T14:27:34.401Z,-1.30
2022-12-16T14:30:32.611Z,-1.30
2022-12-16T14:33:33.215Z,-1.30
2022-12-16T14:36:31.061Z,-1.30
2022-12-16T14:39:17.199Z,-1.30
2022-12-16T14:42:09.503Z,-1.30
2022-12-16T14:44:56.375Z,-1.40
2022-12-16T14:47:43.351Z,-1.30
2022-12-16T14:50:41.085Z,-1.50
2022-12-16T14:53:34.053Z,-1.50
2022-12-16T14:56:36.048Z,-1.60
2022-12-16T14:59:33.824Z,-1.60
2022-12-16T15:02:33.412Z,-1.60
2022-12-16T15:05:20.245Z,-1.70
2022-12-16T15:08:16.418Z,-1.70
2022-12-16T15:11:11.434Z,-1.70
2022-12-16T15:14:03.345Z,-1.70
2022-12-16T15:16:57.174Z,-1.70
2022-12-16T15:19:44.211Z,-1.80
2022-12-16T15:22:34.410Z,-1.90
2022-12-16T15:25:23.202Z,-2.00
2022-12-16T15:28:13.077Z,-2.10
2022-12-16T15:31:00.249Z,-2.20
2022-12-16T15:34:03.138Z,-2.30
2022-12-16T15:36:51.399Z,-2.40
2022-12-16T15:39:39.155Z,-2.50
2022-12-16T15:42:52.715Z,-2.50
2022-12-16T15:45:43.293Z,-2.60
2022-12-16T15:48:37.583Z,-2.60
2022-12-16T15:51:37.806Z,-2.60
2022-12-16T15:54:24.474Z,-2.60
2022-12-16T15:57:10.487Z,-2.60
2022-12-16T16:00:14.094Z,-2.50
2022-12-16T16:03:06.074Z,-2.50
2022-12-16T16:05:55.168Z,-2.50
2022-12-16T16:08:40.600Z,-2.50
2022-12-16T16:11:27.091Z,-2.50
2022-12-16T16:14:14.591Z,-2.50
2022-12-16T16:17:02.045Z,-2.50
2022-12-16T16:19:48.407Z,-2.50
2022-12-16T16:22:36.310Z,-2.50
2022-12-16T16:25:23.046Z,-2.50
2022-12-16T16:28:14.121Z,-2.50
2022-12-16T16:31:01.477Z,-2.50
2022-12-16T16:33:49.148Z,-2.40
2022-12-16T16:36:35.283Z,-2.40
2022-12-16T16:39:21.346Z,-2.30
2022-12-16T16:42:07.248Z,-2.30
2022-12-16T16:44:53.074Z,-2.30
2022-12-16T16:47:39.069Z,-2.20
2022-12-16T16:50:32.337Z,-2.30
2022-12-16T16:53:18.456Z,-2.30
2022-12-16T16:56:04.566Z,-2.30
2022-12-16T16:58:52.710Z,-2.30
2022-12-16T17:01:39.064Z,-2.30
2022-12-16T17:04:25.315Z,-2.30
2022-12-16T17:07:12.766Z,-2.30
2022-12-16T17:09:58.938Z,-2.30
2022-12-16T17:12:47.762Z,-2.30
2022-12-16T17:15:36.592Z,-2.30
2022-12-16T17:18:23.903Z,-2.30
2022-12-16T17:21:10.128Z,-2.30
2022-12-16T17:23:57.172Z,-2.20
2022-12-16T17:26:44.287Z,-2.20
2022-12-16T17:29:36.806Z,-2.20
2022-12-16T17:32:23.289Z,-2.20
2022-12-16T17:35:09.495Z,-2.20
2022-12-16T17:37:55.412Z,-2.20
2022-12-16T17:40:43.443Z,-2.20
2022-12-16T17:43:29.787Z,-2.20
2022-12-16T17:46:18.084Z,-2.20
2022-12-16T17:49:08.707Z,-2.10
2022-12-16T17:51:55.271Z,-2.10
2022-12-16T17:54:41.662Z,-2.10
2022-12-16T17:57:29.518Z,-2.10
2022-12-16T18:00:15.683Z,-2.10
2022-12-16T18:03:02.024Z,-2.10
2022-12-16T18:05:47.535Z,-2.00
2022-12-16T18:08:35.276Z,-2.00
2022-12-16T18:11:21.273Z,-2.00
2022-12-16T18:14:20.004Z,-2.00
2022-12-16T18:17:06.241Z,-1.90
2022-12-16T18:20:03.816Z,-1.90
2022-12-16T18:22:50.007Z,-1.80
2022-12-16T18:25:36.039Z,-1.70
2022-12-16T18:28:22.260Z,-1.60
2022-12-16T18:31:09.675Z,-1.60
2022-12-16T18:33:55.654Z,-1.60
2022-12-16T18:36:53.335Z,-1.60
2022-12-16T18:39:39.312Z,-1.50
2022-12-16T18:42:25.603Z,-1.50
2022-12-16T18:45:11.807Z,-1.50
2022-12-16T18:47:58.448Z,-1.50
2022-12-16T18:50:44.528Z,-1.60
2022-12-16T18:53:30.643Z,-1.50
2022-12-16T18:56:23.468Z,-1.50
2022-12-16T18:59:09.898Z,-1.50
2022-12-16T19:01:56.173Z,-1.50
2022-12-16T19:04:43.891Z,-1.50
2022-12-16T19:07:33.573Z,-1.50
2022-12-16T19:10:20.159Z,-1.60
2022-12-16T19:13:06.120Z,-1.60
2022-12-16T19:15:52.326Z,-1.60
2022-12-16T19:18:38.746Z,-1.60
2022-12-16T19:21:26.381Z,-1.70
2022-12-16T19:24:12.410Z,-1.60
2022-12-16T19:26:58.814Z,-1.60
2022-12-16T19:29:45.016Z,-1.60
2022-12-16T19:32:31.141Z,-1.60
2022-12-16T19:35:17.682Z,-1.60
2022-12-16T19:38:05.471Z,-1.50
2022-12-16T19:40:51.437Z,-1.60
2022-12-16T19:43:39.953Z,-1.60
2022-12-16T19:46:26.153Z,-1.60
2022-12-16T19:49:12.148Z,-1.50
2022-12-16T19:51:58.236Z,-1.50
2022-12-16T19:54:45.913Z,-1.50
2022-12-16T19:57:28.349Z,-1.50
2022-12-16T20:00:16.946Z,-1.50
2022-12-16T20:03:03.178Z,-1.50
2022-12-16T20:05:49.371Z,-1.50
2022-12-16T20:08:35.446Z,-1.50
2022-12-16T20:11:25.396Z,-1.40
2022-12-16T20:14:13.952Z,-1.50
2022-12-16T20:17:00.975Z,-1.40
2022-12-16T20:19:47.478Z,-1.40
2022-12-16T20:22:33.553Z,-1.40
2022-12-16T20:25:19.461Z,-1.40
2022-12-16T20:28:06.926Z,-1.40
2022-12-16T20:30:53.629Z,-1.30
2022-12-16T20:33:42.677Z,-1.30
2022-12-16T20:36:29.178Z,-1.30
2022-12-16T20:39:15.275Z,-1.30
2022-12-16T20:42:01.246Z,-1.30
2022-12-16T20:44:48.486Z,-1.30
2022-12-16T20:47:34.334Z,-1.30
2022-12-16T20:50:20.628Z,-1.30
2022-12-16T20:53:06.729Z,-1.30
2022-12-16T20:55:52.880Z,-1.30
2022-12-16T20:58:42.423Z,-1.30
2022-12-16T21:01:30.238Z,-1.30
2022-12-16T21:04:16.474Z,-1.20
2022-12-16T21:07:02.493Z,-1.20
2022-12-16T21:09:48.353Z,-1.20
2022-12-16T21:12:34.371Z,-1.20
2022-12-16T21:15:20.532Z,-1.20
2022-12-16T21:18:08.128Z,-1.20
2022-12-16T21:21:02.113Z,-1.20
2022-12-16T21:23:48.128Z,-1.20
2022-12-16T21:26:34.367Z,-1.20
2022-12-16T21:29:20.227Z,-1.20
2022-12-16T21:32:06.353Z,-1.20
2022-12-16T21:34:53.822Z,-1.20
2022-12-16T21:37:42.679Z,-1.20
2022-12-16T21:40:29.359Z,-1.20
2022-12-16T21:43:15.085Z,-1.20
2022-12-16T21:46:01.582Z,-1.20
2022-12-16T21:48:56.240Z,-1.20
2022-12-16T21:51:43.912Z,-1.20
2022-12-16T21:54:29.687Z,-1.20
2022-12-16T21:57:15.644Z,-1.20
2022-12-16T22:00:01.836Z,-1.20
2022-12-16T22:02:56.878Z,-1.10
2022-12-16T22:05:42.843Z,-1.20
2022-12-16T22:08:30.347Z,-1.10
2022-12-16T22:11:16.565Z,-1.20
2022-12-16T22:14:02.773Z,-1.20
2022-12-16T22:16:49.160Z,-1.10
2022-12-16T22:19:35.313Z,-1.20
2022-12-16T22:22:21.337Z,-1.10
2022-12-16T22:25:14.361Z,-1.10
2022-12-16T22:28:00.817Z,-1.10
2022-12-16T22:30:46.849Z,-1.10
2022-12-16T22:33:33.176Z,-1.10
2022-12-16T22:36:19.811Z,-1.00
2022-12-16T22:39:05.979Z,-1.00
2022-12-16T22:41:53.641Z,-1.00
2022-12-16T22:44:36.486Z,-1.00
2022-12-16T22:47:22.523Z,-1.00
2022-12-16T22:50:08.416Z,-1.00
2022-12-16T22:52:54.738Z,-1.00
2022-12-16T22:55:40.506Z,-0.90
2022-12-16T22:58:29.127Z,-1.00
2022-12-16T23:01:16.344Z,-1.00
2022-12-16T23:04:22.070Z,-1.00
2022-12-16T23:07:12.587Z,-1.00
2022-12-16T23:09:58.657Z,-1.00
2022-12-16T23:12:44.437Z,-1.00
2022-12-16T23:15:32.406Z,-1.00
2022-12-16T23:18:19.256Z,-1.00
2022-12-16T23:21:06.263Z,-1.00
2022-12-16T23:23:58.258Z,-1.00
2022-12-16T23:26:44.543Z,-1.00
2022-12-16T23:29:30.604Z,-1.00
2022-12-16T23:32:29.622Z,-1.00
2022-12-16T23:35:15.929Z,-1.00
2022-12-16T23:38:02.057Z,-1.00
2022-12-16T23:40:48.260Z,-1.00
2022-12-16T23:43:34.361Z,-1.00
2022-12-16T23:46:20.471Z,-1.00
2022-12-16T23:49:07.896Z,-1.00
2022-12-16T23:51:54.047Z,-1.00
2022-12-16T23:54:45.499Z,-1.00
2022-12-16T23:57:31.712Z,-1.00
